Time;durP1;ratioP1;P1;durP2;ratioP2;P2;SDS_P1;SDS_P2;PMS_P1;PMS_P2;Temp;Humidity;BMP_temperature;BMP_pressure;BME280_temperature;BME280_humidity;BME280_pressure;Samples;Min_cycle;Max_cycle;Signal;HPM_P1;HPM_P2
2023/08/28 00:02:23;;;;;;;6.78;1.58;;;13.70;99.90;;;13.38;100.00;96874.84;5028632;28;20699;-41
2023/08/28 00:04:49;;;;;;;3.85;1.40;;;13.70;99.90;;;13.33;100.00;96864.50;5026782;28;20037;-42
2023/08/28 00:07:15;;;;;;;3.22;1.20;;;13.70;99.90;;;13.34;100.00;96866.22;5028130;28;20571;-43
2023/08/28 00:09:41;;;;;;;4.45;1.55;;;13.70;99.90;;;13.27;100.00;96856.88;5026640;28;20092;-42
2023/08/28 00:12:07;;;;;;;4.90;1.67;;;13.60;99.90;;;13.28;100.00;96856.81;5027676;28;20039;-43
2023/08/28 00:14:33;;;;;;;5.18;1.50;;;13.60;99.90;;;13.14;100.00;96830.25;5027729;28;20029;-43
2023/08/28 00:16:59;;;;;;;1.77;1.40;;;13.60;99.90;;;13.20;100.00;96855.53;5026286;28;20032;-43
2023/08/28 00:19:25;;;;;;;3.72;1.58;;;13.50;99.90;;;13.12;100.00;96840.94;5023364;28;20044;-42
2023/08/28 00:21:50;;;;;;;2.13;1.30;;;13.50;99.90;;;13.11;100.00;96849.78;5027422;28;20071;-42
2023/08/28 00:24:16;;;;;;;3.30;1.13;;;13.50;99.90;;;13.08;100.00;96857.94;5024946;28;20060;-41
2023/08/28 00:26:42;;;;;;;2.05;1.23;;;13.40;99.90;;;13.11;100.00;96870.13;5022409;28;20033;-41
2023/08/28 00:29:07;;;;;;;3.60;1.52;;;13.50;99.90;;;13.11;100.00;96856.91;5026314;28;20431;-43
2023/08/28 00:31:33;;;;;;;3.40;1.50;;;13.50;99.90;;;13.09;100.00;96838.44;5028568;28;20106;-41
2023/08/28 00:33:59;;;;;;;3.40;1.38;;;13.50;99.90;;;12.94;100.00;96812.84;5029263;28;20063;-41
2023/08/28 00:36:25;;;;;;;4.15;1.50;;;13.50;99.90;;;13.09;100.00;96835.78;5028881;28;20048;-41
2023/08/28 00:38:51;;;;;;;2.63;1.30;;;13.40;99.90;;;13.07;100.00;96845.63;5026936;28;20045;-41
2023/08/28 00:41:16;;;;;;;2.70;1.30;;;13.40;99.90;;;13.04;100.00;96853.72;5027911;28;20586;-42
2023/08/28 00:43:42;;;;;;;3.13;1.40;;;13.40;99.90;;;13.02;100.00;96860.06;5024838;28;20037;-42
2023/08/28 00:46:08;;;;;;;4.25;1.52;;;13.40;99.90;;;12.98;100.00;96865.50;5031158;28;20118;-42
2023/08/28 00:48:35;;;;;;;3.17;1.65;;;13.40;99.90;;;13.04;100.00;96874.91;5031320;28;20167;-41
2023/08/28 00:51:01;;;;;;;2.55;1.20;;;13.40;99.90;;;13.07;100.00;96877.38;5029580;28;20081;-44
2023/08/28 00:53:26;;;;;;;3.58;1.17;;;13.40;99.90;;;13.09;100.00;96877.31;5031896;28;20732;-42
2023/08/28 00:55:53;;;;;;;3.47;1.40;;;13.40;99.90;;;13.11;100.00;96870.97;5030710;28;20116;-42
2023/08/28 00:58:20;;;;;;;3.85;1.30;;;13.40;99.90;;;13.13;100.00;96868.25;5029960;28;20560;-42
2023/08/28 01:00:46;;;;;;;2.85;1.30;;;13.50;99.90;;;13.14;100.00;96860.22;5023359;28;20404;-42
2023/08/28 01:03:12;;;;;;;1.65;1.10;;;13.50;99.90;;;13.18;100.00;96861.75;5025559;28;20029;-41
2023/08/28 01:06:18;;;;;;;1.73;1.30;;;13.50;99.90;;;13.21;100.00;96867.81;5029608;28;20040;-42
2023/08/28 01:09:08;;;;;;;2.83;1.30;;;13.50;99.90;;;13.18;100.00;96853.81;5031285;28;20134;-42
2023/08/28 01:11:51;;;;;;;4.68;1.27;;;13.50;99.90;;;13.22;100.00;96851.84;5028580;28;20029;-42
2023/08/28 01:14:28;;;;;;;2.85;1.30;;;13.50;99.90;;;13.25;100.00;96866.72;5030421;28;20033;-42
2023/08/28 01:17:05;;;;;;;1.92;1.10;;;13.60;99.90;;;13.26;100.00;96869.28;5030419;28;20051;-42
2023/08/28 01:19:38;;;;;;;2.85;1.38;;;13.50;99.90;;;13.14;100.00;96854.94;5023180;28;20064;-42
2023/08/28 01:22:35;;;;;;;1.98;1.10;;;13.50;99.90;;;13.15;100.00;96861.06;5020888;28;20094;-42
2023/08/28 01:25:10;;;;;;;2.05;1.30;;;13.50;99.90;;;13.15;100.00;96876.94;5021121;28;20465;-41
2023/08/28 01:27:38;;;;;;;2.53;1.27;;;13.50;99.90;;;13.06;100.00;96869.53;5023395;28;20036;-41
2023/08/28 01:30:05;;;;;;;2.25;1.17;;;13.50;99.90;;;13.11;100.00;96876.28;5021278;28;20033;-42
2023/08/28 01:32:31;;;;;;;2.47;1.42;;;13.50;99.90;;;13.03;100.00;96862.63;5027562;28;20149;-41
2023/08/28 01:34:57;;;;;;;1.50;1.15;;;13.50;99.90;;;13.13;100.00;96890.28;5025336;28;20493;-43
2023/08/28 01:37:27;;;;;;;2.30;1.10;;;13.40;99.90;;;13.12;100.00;96883.28;5025378;28;20038;-42
2023/08/28 01:39:57;;;;;;;1.30;1.17;;;13.40;99.90;;;13.14;100.00;96880.56;5023472;28;20036;-42
2023/08/28 01:42:24;;;;;;;2.10;1.10;;;13.40;99.90;;;13.13;100.00;96878.84;5023064;28;20069;-42
2023/08/28 01:44:54;;;;;;;1.77;1.40;;;13.40;99.90;;;13.14;100.00;96884.06;5031640;28;20497;-42
2023/08/28 01:47:24;;;;;;;1.67;1.27;;;13.50;99.90;;;13.14;100.00;96884.06;5015282;28;20033;-42
2023/08/28 01:49:53;;;;;;;1.13;1.02;;;13.50;99.90;;;13.07;100.00;96858.84;5045777;28;20247;-42
2023/08/28 01:52:19;;;;;;;1.33;1.10;;;13.40;99.90;;;13.17;100.00;96875.06;5025669;28;20041;-42
2023/08/28 01:54:45;;;;;;;3.78;1.30;;;13.50;99.90;;;13.17;100.00;96878.59;5025157;28;20072;-42
2023/08/28 01:57:11;;;;;;;1.50;1.10;;;13.50;99.90;;;13.16;100.00;96876.88;5012669;28;20033;-43
2023/08/28 01:59:36;;;;;;;1.77;1.20;;;13.50;99.90;;;13.20;100.00;96880.22;5025508;28;20033;-42
2023/08/28 02:02:02;;;;;;;2.17;1.42;;;13.50;99.90;;;13.22;100.00;96874.81;5015374;28;20048;-42
2023/08/28 02:04:28;;;;;;;1.30;1.20;;;13.50;99.90;;;13.23;100.00;96868.59;5026950;28;20028;-43
2023/08/28 02:06:54;;;;;;;1.85;1.13;;;13.50;99.90;;;13.24;100.00;96857.91;5017994;28;20116;-41
2023/08/28 02:09:19;;;;;;;1.77;1.23;;;13.50;99.90;;;13.24;100.00;96857.91;5020585;28;20497;-42
2023/08/28 02:11:45;;;;;;;1.25;0.90;;;13.50;99.90;;;13.22;100.00;96843.91;5011252;28;20040;-42
2023/08/28 02:14:11;;;;;;;1.98;1.20;;;13.50;99.90;;;13.18;100.00;96840.56;5018004;28;20729;-42
2023/08/28 02:16:39;;;;;;;3.40;1.45;;;13.50;99.90;;;13.17;100.00;96835.34;5016336;28;20033;-42
2023/08/28 02:19:05;;;;;;;3.08;1.15;;;13.50;99.90;;;13.12;100.00;96830.34;5024572;28;20418;-41
2023/08/28 02:21:31;;;;;;;7.50;1.10;;;13.50;99.90;;;13.10;100.00;96815.47;5024559;28;20056;-42
2023/08/28 02:23:57;;;;;;;4.45;1.50;;;13.50;99.90;;;13.01;100.00;96790.41;5018111;28;20434;-42
2023/08/28 02:26:24;;;;;;;1.05;0.95;;;13.50;99.90;;;13.15;100.00;96811.66;5022854;28;20028;-42
2023/08/28 02:28:49;;;;;;;1.80;1.10;;;13.50;99.90;;;13.01;100.00;96792.16;5026487;28;20587;-43
2023/08/28 02:31:15;;;;;;;2.65;1.15;;;13.50;99.90;;;13.09;100.00;96806.69;5012403;28;20028;-42
2023/08/28 02:33:41;;;;;;;1.42;1.20;;;13.40;99.90;;;13.09;100.00;96804.03;5021124;28;20028;-42
2023/08/28 02:36:07;;;;;;;5.30;1.40;;;13.40;99.90;;;13.08;100.00;96815.56;5019129;28;20294;-42
2023/08/28 02:38:33;;;;;;;6.10;1.50;;;13.40;99.90;;;13.07;100.00;96805.91;5021057;28;20075;-41
2023/08/28 02:41:07;;;;;;;2.58;1.35;;;13.40;99.90;;;13.01;100.00;96792.16;5026790;28;20112;-44
2023/08/28 02:43:33;;;;;;;1.38;1.20;;;13.40;99.90;;;12.94;100.00;96783.75;5019881;28;20033;-41
2023/08/28 02:46:00;;;;;;;2.70;1.20;;;13.40;99.90;;;12.97;100.00;96797.66;5013757;28;20037;-42
2023/08/28 02:48:26;;;;;;;4.35;1.65;;;13.30;99.90;;;12.94;100.00;96795.16;5021780;28;20577;-42
2023/08/28 02:50:52;;;;;;;2.30;1.20;;;13.30;99.90;;;12.91;100.00;96799.78;5021204;28;20041;-42
2023/08/28 02:53:18;;;;;;;2.55;1.30;;;13.30;99.90;;;12.89;100.00;96801.66;5019740;28;20036;-42
2023/08/28 02:56:24;;;;;;;3.53;1.70;;;13.20;99.90;;;12.83;100.00;96791.41;5016624;28;21527;-43
2023/08/28 02:58:51;;;;;;;3.60;1.60;;;13.20;99.90;;;12.71;100.00;96780.56;5024588;28;20038;-43
2023/08/28 03:01:18;;;;;;;2.22;1.65;;;13.20;99.90;;;12.76;100.00;96790.91;5014018;28;20060;-42
2023/08/28 03:03:45;;;;;;;4.82;1.63;;;13.10;99.90;;;12.73;100.00;96789.28;5012938;28;20056;-42
2023/08/28 03:06:11;;;;;;;2.78;1.63;;;13.10;99.90;;;12.69;100.00;96784.25;5017611;28;20072;-42
2023/08/28 03:08:37;;;;;;;2.22;1.60;;;13.10;99.90;;;12.66;100.00;96787.91;5021475;28;20385;-41
2023/08/28 03:11:04;;;;;;;3.40;1.67;;;13.10;99.90;;;12.67;100.00;96789.63;5022525;28;20068;-42
2023/08/28 03:13:29;;;;;;;2.13;1.33;;;13.10;99.90;;;12.69;100.00;96786.91;5022284;28;20043;-42
2023/08/28 03:15:55;;;;;;;3.13;1.60;;;13.10;99.90;;;12.70;100.00;96788.59;5016883;28;20078;-41
2023/08/28 03:18:21;;;;;;;5.35;1.60;;;13.10;99.90;;;12.71;100.00;96783.22;5019220;28;20033;-42
2023/08/28 03:20:47;;;;;;;5.85;1.55;;;13.10;99.90;;;12.72;100.00;96777.00;5019927;28;20147;-42
2023/08/28 03:23:12;;;;;;;2.90;1.60;;;13.10;99.90;;;12.69;100.00;96760.44;5021168;28;21046;-42
2023/08/28 03:25:38;;;;;;;5.00;1.52;;;13.10;99.90;;;12.69;100.00;96765.72;5019892;28;20500;-42
2023/08/28 03:28:07;;;;;;;6.05;1.58;;;13.10;99.90;;;12.67;100.00;96776.41;5018872;28;20044;-42
2023/08/28 03:30:36;;;;;;;4.57;1.58;;;13.00;99.90;;;12.65;100.00;96775.63;5022120;28;20024;-42
2023/08/28 03:33:02;;;;;;;4.05;1.40;;;13.00;99.90;;;12.63;100.00;96780.13;5019761;28;20028;-42
2023/08/28 03:35:27;;;;;;;2.70;1.50;;;13.00;99.90;;;12.62;100.00;96773.16;5020595;28;20039;-42
2023/08/28 03:37:53;;;;;;;2.30;1.25;;;13.00;99.90;;;12.60;100.00;96772.38;5022043;28;20044;-42
2023/08/28 03:40:19;;;;;;;3.03;1.20;;;13.00;99.90;;;12.57;100.00;96773.38;5022935;28;20063;-42
2023/08/28 03:42:44;;;;;;;2.17;1.25;;;13.00;99.90;;;12.55;100.00;96762.03;5021152;28;20063;-43
2023/08/28 03:45:10;;;;;;;1.50;1.40;;;13.00;99.90;;;12.48;100.00;96755.38;5015559;28;20096;-42
2023/08/28 03:47:36;;;;;;;2.25;1.40;;;13.00;99.90;;;12.62;100.00;96783.72;5026679;28;20110;-42
2023/08/28 03:50:01;;;;;;;2.72;1.52;;;13.00;99.90;;;12.64;100.00;96795.06;5025305;28;20114;-43
2023/08/28 03:52:27;;;;;;;2.45;1.30;;;13.00;99.90;;;12.66;100.00;96792.34;5022118;28;20493;-42
2023/08/28 03:54:53;;;;;;;3.35;1.60;;;13.00;99.90;;;12.66;100.00;96810.88;5017419;28;20120;-42
2023/08/28 03:57:20;;;;;;;4.38;2.25;;;13.00;99.90;;;12.67;100.00;96800.22;5018905;28;20414;-42
2023/08/28 03:59:46;;;;;;;2.15;1.50;;;13.00;99.90;;;12.67;100.00;96802.84;5024109;28;20111;-43
2023/08/28 04:02:12;;;;;;;4.15;1.73;;;13.10;99.90;;;12.67;100.00;96804.63;5012787;28;20080;-42
2023/08/28 04:04:37;;;;;;;3.83;1.90;;;13.10;99.90;;;12.64;100.00;96808.31;5020706;28;20409;-42
2023/08/28 04:07:03;;;;;;;2.63;1.90;;;13.10;99.90;;;12.57;100.00;96802.47;5017722;28;20036;-42
2023/08/28 04:09:30;;;;;;;3.72;1.83;;;13.00;99.90;;;12.62;100.00;96809.34;5022043;28;20032;-42
2023/08/28 04:11:56;;;;;;;1.77;1.38;;;13.00;99.90;;;12.61;100.00;96816.41;5017742;28;20669;-42
2023/08/28 04:14:22;;;;;;;2.92;1.88;;;13.00;99.90;;;12.60;100.00;96806.78;5021361;28;20440;-42
2023/08/28 04:16:49;;;;;;;1.38;1.20;;;13.00;99.90;;;12.63;100.00;96805.72;5022271;28;20040;-43
2023/08/28 04:19:15;;;;;;;4.10;1.50;;;13.00;99.90;;;12.65;100.00;96799.44;5024130;28;20702;-42
2023/08/28 04:21:41;;;;;;;3.55;1.60;;;13.00;99.90;;;12.68;100.00;96799.25;5007405;28;20110;-41
2023/08/28 04:24:07;;;;;;;7.75;1.58;;;13.00;99.90;;;12.63;100.00;96785.41;5017971;28;20056;-42
2023/08/28 04:26:32;;;;;;;2.58;1.50;;;13.00;99.90;;;12.68;100.00;96793.97;5022912;28;20048;-43
2023/08/28 04:28:58;;;;;;;5.00;1.63;;;13.10;99.90;;;12.65;100.00;96778.28;5027233;28;20110;-42
2023/08/28 04:31:24;;;;;;;1.85;1.58;;;13.10;99.90;;;12.70;100.00;96778.84;5027686;28;20053;-42
2023/08/28 04:33:50;;;;;;;3.28;1.77;;;13.10;99.90;;;12.69;100.00;96771.88;5023506;28;20140;-42
2023/08/28 04:36:15;;;;;;;4.18;1.80;;;13.10;99.90;;;12.68;100.00;96761.38;5028002;28;20107;-42
2023/08/28 04:38:41;;;;;;;3.25;1.65;;;13.10;99.90;;;12.74;100.00;96764.53;5025942;28;20029;-42
2023/08/28 04:41:07;;;;;;;2.50;1.60;;;13.10;99.90;;;12.74;100.00;96771.59;5026924;28;20052;-42
2023/08/28 04:43:32;;;;;;;3.20;1.90;;;13.10;99.90;;;12.70;100.00;96764.78;5027866;28;20243;-42
2023/08/28 04:45:58;;;;;;;5.18;2.00;;;13.10;99.90;;;12.66;100.00;96769.38;5024183;28;20426;-43
2023/08/28 04:48:24;;;;;;;2.38;1.92;;;13.10;99.90;;;12.70;100.00;96776.19;5024642;28;20040;-42
2023/08/28 04:50:49;;;;;;;4.15;2.00;;;13.10;99.90;;;12.71;100.00;96771.78;5019018;28;20052;-42
2023/08/28 04:53:15;;;;;;;2.38;1.63;;;13.10;99.90;;;12.70;100.00;96770.91;5018753;28;20037;-44
2023/08/28 04:55:41;;;;;;;2.55;1.48;;;13.10;99.90;;;12.69;100.00;96771.88;5021965;28;20397;-41
2023/08/28 04:58:07;;;;;;;3.00;1.98;;;13.10;99.90;;;12.71;100.00;96767.34;5011041;28;20123;-41
2023/08/28 05:00:33;;;;;;;4.63;2.00;;;13.10;99.90;;;12.72;100.00;96768.19;5028357;28;20051;-42
2023/08/28 05:02:58;;;;;;;7.32;2.22;;;13.10;99.90;;;12.68;100.00;96772.78;5023242;28;20040;-42
2023/08/28 05:05:24;;;;;;;3.95;1.90;;;13.10;99.90;;;12.69;100.00;96779.81;5018890;28;20516;-41
2023/08/28 05:07:50;;;;;;;3.92;2.20;;;13.10;99.90;;;12.71;100.00;96777.09;5015857;28;20025;-43
2023/08/28 05:10:15;;;;;;;3.67;1.90;;;13.10;99.90;;;12.76;100.00;96777.69;5017794;28;21278;-43
2023/08/28 05:12:41;;;;;;;7.30;2.10;;;13.10;99.90;;;12.79;100.00;96775.72;5022510;28;20103;-41
2023/08/28 05:15:07;;;;;;;3.40;1.83;;;13.20;99.90;;;12.82;100.00;96771.19;5018272;28;20543;-42
2023/08/28 05:17:33;;;;;;;4.57;1.88;;;13.20;99.90;;;12.82;100.00;96771.19;5025487;28;20055;-42
2023/08/28 05:19:59;;;;;;;4.10;2.00;;;13.20;99.90;;;12.85;100.00;96771.00;5024714;28;20638;-42
2023/08/28 05:22:25;;;;;;;6.03;1.77;;;13.20;99.90;;;12.79;100.00;96751.03;5026796;28;20029;-42
2023/08/28 05:24:50;;;;;;;6.90;2.30;;;13.20;99.90;;;12.82;100.00;96747.38;5025260;28;20158;-42
2023/08/28 05:27:16;;;;;;;3.10;2.20;;;13.20;99.90;;;12.82;100.00;96748.22;5023128;28;20048;-41
2023/08/28 05:29:46;;;;;;;8.18;2.50;;;13.20;99.90;;;12.85;100.00;96755.13;5023820;28;20021;-43
2023/08/28 05:32:11;;;;;;;2.35;1.70;;;13.20;99.90;;;12.87;100.00;96759.41;5027123;28;20068;-41
2023/08/28 05:34:37;;;;;;;3.55;1.60;;;13.30;99.90;;;12.88;100.00;96761.09;5029569;28;20481;-42
2023/08/28 05:37:03;;;;;;;2.70;1.88;;;13.30;99.90;;;12.92;100.00;96765.28;5027240;28;20393;-42
2023/08/28 05:39:28;;;;;;;6.03;2.47;;;13.30;99.90;;;12.91;100.00;96768.03;5027793;28;20154;-42
2023/08/28 05:41:54;;;;;;;6.38;2.33;;;13.30;99.90;;;12.91;100.00;96768.88;5029672;28;20037;-41
2023/08/28 05:44:20;;;;;;;5.85;2.40;;;13.30;99.90;;;12.95;100.00;96769.53;5032200;28;20041;-42
2023/08/28 05:46:45;;;;;;;5.82;2.35;;;13.30;99.90;;;12.96;100.00;96763.34;5031240;28;20631;-45
2023/08/28 05:49:11;;;;;;;4.07;1.98;;;13.30;99.90;;;13.00;100.00;96764.84;5030701;28;20029;-42
2023/08/28 05:51:37;;;;;;;2.78;1.98;;;13.40;99.90;;;12.93;100.00;96750.25;5031844;28;20099;-42
2023/08/28 05:54:03;;;;;;;6.65;2.30;;;13.40;99.90;;;13.02;100.00;96765.63;5025224;28;20037;-42
2023/08/28 05:56:28;;;;;;;3.70;2.15;;;13.40;99.90;;;13.04;100.00;96749.66;5030182;28;20025;-43
2023/08/28 05:58:54;;;;;;;3.78;1.80;;;13.40;99.90;;;13.06;100.00;96751.25;5027155;28;20036;-44
2023/08/28 06:01:20;;;;;;;7.00;2.10;;;13.40;99.90;;;13.09;100.00;96750.25;5026748;28;20397;-42
2023/08/28 06:03:45;;;;;;;2.38;1.90;;;13.50;99.90;;;13.13;100.00;96746.47;5028776;28;20121;-43
2023/08/28 06:06:12;;;;;;;4.55;2.08;;;13.50;99.90;;;13.14;100.00;96740.25;5027277;28;20028;-43
2023/08/28 06:08:38;;;;;;;3.55;2.28;;;13.50;99.90;;;13.12;100.00;96729.75;5028947;28;20092;-42
2023/08/28 06:11:04;;;;;;;4.18;2.40;;;13.50;99.90;;;13.18;100.00;96726.72;5026532;28;20452;-41
2023/08/28 06:13:29;;;;;;;4.20;2.00;;;13.60;99.90;;;13.25;100.00;96723.75;5023217;28;20485;-43
2023/08/28 06:15:55;;;;;;;5.25;2.50;;;13.60;99.90;;;13.28;100.00;96718.25;5025408;28;20037;-41
2023/08/28 06:18:21;;;;;;;9.20;2.63;;;13.70;99.90;;;13.37;100.00;96723.06;5022646;28;20103;-41
2023/08/28 06:20:46;;;;;;;3.03;2.00;;;13.70;99.90;;;13.43;100.00;96716.53;5025236;28;20647;-41
2023/08/28 06:23:12;;;;;;;6.03;2.25;;;13.80;99.90;;;13.49;100.00;96718.81;5010441;28;20044;-41
2023/08/28 06:25:38;;;;;;;4.00;2.33;;;13.80;99.90;;;13.54;100.00;96709.63;5021193;28;20222;-40
2023/08/28 06:28:04;;;;;;;5.90;2.58;;;13.90;99.90;;;13.58;100.00;96688.28;5016695;28;20040;-40
2023/08/28 06:30:30;;;;;;;5.57;2.75;;;13.90;99.90;;;13.61;100.00;96694.25;5028055;28;20139;-39
2023/08/28 06:32:57;;;;;;;3.70;2.10;;;14.00;99.90;;;13.70;100.00;96708.72;5029094;28;20031;-39
2023/08/28 06:35:22;;;;;;;4.50;2.35;;;14.00;99.90;;;13.75;100.00;96707.50;5033385;28;20125;-40
2023/08/28 06:37:48;;;;;;;3.90;2.53;;;14.10;99.90;;;13.77;100.00;96706.56;5035693;28;20482;-38
2023/08/28 06:40:14;;;;;;;3.88;2.58;;;14.10;99.90;;;13.65;100.00;96686.97;5031322;28;20033;-39
2023/08/28 06:42:39;;;;;;;4.43;2.97;;;14.20;99.90;;;13.81;100.00;96702.78;5036320;28;20017;-39
2023/08/28 06:45:06;;;;;;;5.55;2.88;;;14.20;99.90;;;13.84;100.00;96690.19;5032695;28;20091;-39
2023/08/28 06:47:32;;;;;;;5.05;2.88;;;14.20;99.90;;;13.88;100.00;96691.69;5032632;28;20517;-40
2023/08/28 06:49:57;;;;;;;4.55;2.80;;;14.20;99.90;;;13.92;100.00;96692.38;5028264;28;20029;-39
2023/08/28 06:52:23;;;;;;;4.45;2.90;;;14.30;99.90;;;13.94;100.00;96694.00;5022029;28;20057;-38
2023/08/28 06:54:49;;;;;;;6.07;2.58;;;14.30;99.90;;;14.00;100.00;96683.94;5022732;28;20750;-40
2023/08/28 06:57:14;;;;;;;7.72;2.70;;;14.30;99.90;;;14.06;100.00;96695.00;5023556;28;20032;-39
2023/08/28 06:59:40;;;;;;;9.30;2.97;;;14.40;99.90;;;14.05;100.00;96680.06;5025196;28;20036;-39
2023/08/28 07:02:06;;;;;;;3.13;2.45;;;14.40;99.90;;;14.12;100.00;96688.47;5022370;28;20041;-40
2023/08/28 07:04:31;;;;;;;5.25;2.70;;;14.50;99.90;;;14.15;100.00;96684.78;5031820;28;20156;-40
2023/08/28 07:06:57;;;;;;;4.85;2.38;;;14.50;99.90;;;14.19;100.00;96694.25;5022400;28;20036;-39
2023/08/28 07:09:23;;;;;;;4.88;2.75;;;14.50;99.90;;;14.20;100.00;96704.75;5022985;28;20033;-39
2023/08/28 07:11:49;;;;;;;5.40;3.25;;;14.50;99.90;;;14.25;100.00;96700.03;5020194;28;20524;-39
2023/08/28 07:14:15;;;;;;;3.85;2.42;;;14.60;99.90;;;14.35;100.00;96710.06;5019035;28;20041;-40
2023/08/28 07:16:41;;;;;;;6.03;3.78;;;14.70;99.90;;;14.43;100.00;96718.38;5017493;28;20032;-40
2023/08/28 07:19:07;;;;;;;4.53;3.72;;;14.80;99.90;;;14.46;100.00;96726.13;5020531;28;20519;-40
2023/08/28 07:21:33;;;;;;;8.35;4.35;;;14.80;99.90;;;14.43;100.00;96726.34;5022512;28;20059;-39
2023/08/28 07:23:58;;;;;;;6.53;4.53;;;14.80;99.90;;;14.37;100.00;96711.66;5016839;28;20041;-42
2023/08/28 07:26:24;;;;;;;5.38;3.20;;;14.80;99.90;;;14.45;100.00;96724.44;5017484;28;20389;-40
2023/08/28 07:28:50;;;;;;;3.28;2.85;;;14.80;99.90;;;14.44;100.00;96712.13;5019026;28;20041;-40
2023/08/28 07:31:15;;;;;;;7.03;3.90;;;14.80;99.90;;;14.52;100.00;96717.81;5019651;28;20040;-42
2023/08/28 07:33:41;;;;;;;6.22;3.53;;;14.80;99.90;;;14.54;100.00;96709.75;5022860;28;20097;-40
2023/08/28 07:36:07;;;;;;;5.47;3.72;;;14.90;99.90;;;14.51;100.00;96694.84;5020252;28;20449;-39
2023/08/28 07:38:33;;;;;;;4.05;3.10;;;14.90;99.90;;;14.56;100.00;96698.06;5022674;28;20044;-39
2023/08/28 07:40:58;;;;;;;6.25;4.07;;;14.90;99.90;;;14.58;100.00;96706.81;5024320;28;20033;-41
2023/08/28 07:43:25;;;;;;;6.55;3.47;;;14.90;99.90;;;14.58;100.00;96680.28;5024101;28;20045;-40
2023/08/28 07:45:51;;;;;;;5.70;3.35;;;14.90;99.90;;;14.62;100.00;96680.94;5029449;28;20037;-41
2023/08/28 07:48:16;;;;;;;3.10;2.80;;;14.90;99.90;;;14.66;100.00;96693.03;5027821;28;20037;-40
2023/08/28 07:50:45;;;;;;;5.50;3.90;;;14.90;99.90;;;14.68;100.00;96699.13;5030205;28;20064;-40
2023/08/28 07:53:11;;;;;;;6.35;4.00;;;15.00;99.90;;;14.82;100.00;96708.84;5026265;28;20112;-39
2023/08/28 07:55:37;;;;;;;5.07;3.67;;;15.10;99.90;;;14.95;100.00;96728.34;5024939;28;20113;-39
2023/08/28 07:58:04;;;;;;;4.90;3.10;;;15.20;99.90;;;15.14;100.00;96727.13;5027926;28;20025;-39
2023/08/28 08:00:34;;;;;;;10.23;3.30;;;15.40;99.90;;;15.32;100.00;96728.53;5032243;28;20041;-39
2023/08/28 08:03:02;;;;;;;5.07;3.40;;;15.60;99.90;;;15.45;100.00;96734.75;5031316;28;20389;-39
2023/08/28 08:05:27;;;;;;;8.43;2.72;;;15.70;99.90;;;15.57;100.00;96743.69;5025948;28;20124;-40
2023/08/28 08:07:53;;;;;;;6.03;3.50;;;15.90;99.90;;;15.60;100.00;96750.63;5030201;28;20021;-40
2023/08/28 08:10:19;;;;;;;7.65;3.05;;;15.90;99.90;;;15.62;100.00;96735.41;5028731;28;20501;-39
2023/08/28 08:12:45;;;;;;;3.20;2.50;;;15.90;99.90;;;15.64;100.00;96737.00;5032194;28;20043;-39
2023/08/28 08:15:11;;;;;;;4.40;2.90;;;15.90;99.90;;;15.71;100.00;96736.59;5021526;28;20060;-40
2023/08/28 08:17:37;;;;;;;6.05;2.72;;;16.00;99.90;;;15.79;100.00;96748.44;5029864;28;20059;-41
2023/08/28 08:20:09;;;;;;;4.57;2.95;;;16.10;99.90;;;15.83;100.00;96759.72;5026104;28;20611;-39
2023/08/28 08:22:36;;;;;;;6.05;2.83;;;16.10;99.90;;;15.92;100.00;96763.56;5029017;28;20037;-40
2023/08/28 08:25:03;;;;;;;3.10;2.20;;;16.30;99.90;;;16.05;100.00;96771.56;5026461;28;25948;-39
2023/08/28 08:27:29;;;;;;;4.45;2.40;;;16.30;99.90;;;16.06;100.00;96762.59;5019452;28;20035;-42
2023/08/28 08:29:54;;;;;;;3.50;2.00;;;16.40;99.90;;;16.22;100.00;96772.09;5025089;28;20409;-40
2023/08/28 08:32:20;;;;;;;5.90;2.50;;;16.50;99.90;;;16.30;100.00;96766.22;5025807;28;20043;-40
2023/08/28 08:34:46;;;;;;;4.10;2.10;;;16.60;99.90;;;16.39;100.00;96762.91;5029682;28;20496;-40
2023/08/28 08:37:11;;;;;;;4.78;2.05;;;16.70;99.90;;;16.45;100.00;96756.28;5027023;28;20036;-41
2023/08/28 08:39:37;;;;;;;2.80;1.60;;;16.80;99.90;;;16.38;100.00;96755.91;5027436;28;20029;-40
2023/08/28 08:42:03;;;;;;;3.13;1.70;;;16.80;99.90;;;16.32;100.00;96755.47;5013598;28;20036;-40
2023/08/28 08:44:30;;;;;;;1.98;1.38;;;16.70;99.90;;;16.36;100.00;96762.28;5026723;28;20037;-39
2023/08/28 08:46:56;;;;;;;2.17;1.25;;;16.70;99.90;;;16.39;100.00;96751.41;5029658;28;20112;-42
2023/08/28 08:49:26;;;;;;;2.38;1.80;;;16.70;99.90;;;16.53;100.00;96771.75;5027067;28;20079;-39
2023/08/28 08:51:57;;;;;;;3.67;1.88;;;16.80;99.90;;;16.49;100.00;96764.91;5024970;28;20063;-40
2023/08/28 08:54:30;;;;;;;3.53;1.48;;;16.90;99.90;;;16.38;100.00;96765.66;5021878;28;20037;-40
2023/08/28 08:57:03;;;;;;;1.92;1.30;;;16.80;99.90;;;16.35;100.00;96764.09;5027103;28;20076;-39
2023/08/28 08:59:29;;;;;;;2.97;1.55;;;16.70;99.90;;;16.25;100.00;96760.38;5020691;28;20040;-39
2023/08/28 09:01:55;;;;;;;1.90;1.23;;;16.60;99.90;;;16.17;100.00;96762.72;5027752;28;20393;-39
2023/08/28 09:04:21;;;;;;;2.05;1.30;;;16.50;99.90;;;16.19;100.00;96769.63;5027677;28;20615;-40
2023/08/28 09:06:48;;;;;;;3.72;1.70;;;16.50;99.90;;;16.04;100.00;96768.00;5029812;28;20369;-40
2023/08/28 09:09:15;;;;;;;1.45;1.27;;;16.40;99.90;;;16.07;100.00;96765.16;5030204;28;20281;-40
2023/08/28 09:11:45;;;;;;;3.95;1.65;;;16.40;99.90;;;16.11;100.00;96769.28;5028705;28;20033;-41
2023/08/28 09:14:11;;;;;;;1.65;1.40;;;16.50;99.90;;;16.15;100.00;96764.63;5028892;28;20079;-41
2023/08/28 09:16:37;;;;;;;2.50;1.48;;;16.50;99.90;;;16.09;100.00;96754.41;5032756;28;20065;-39
2023/08/28 09:19:03;;;;;;;1.92;1.20;;;16.50;99.90;;;16.28;100.00;96769.97;5031112;28;20117;-41
2023/08/28 09:21:46;;;;;;;2.35;1.10;;;16.60;99.90;;;16.35;100.00;96771.22;5028337;28;20071;-39
2023/08/28 09:24:11;;;;;;;2.80;1.10;;;16.70;99.90;;;16.37;100.00;96745.34;5026236;28;20330;-39
2023/08/28 09:26:38;;;;;;;1.30;1.10;;;16.70;99.90;;;16.32;100.00;96736.84;5026243;28;20094;-39
2023/08/28 09:29:08;;;;;;;1.50;1.10;;;16.70;99.90;;;16.40;100.00;96743.31;5022583;28;20098;-39
2023/08/28 09:31:39;;;;;;;2.03;1.23;;;16.70;99.90;;;16.39;100.00;96743.44;5030200;28;20079;-40
2023/08/28 09:34:06;;;;;;;1.92;0.95;;;16.70;99.90;;;16.37;100.00;96745.34;5020757;28;20394;-40
2023/08/28 09:36:36;;;;;;;2.50;1.08;;;16.70;99.90;;;16.36;100.00;96740.97;5034415;28;20029;-41
2023/08/28 09:39:05;;;;;;;2.25;1.50;;;16.70;99.90;;;16.40;100.00;96734.47;5027129;28;20029;-40
2023/08/28 09:41:48;;;;;;;1.38;1.15;;;16.70;99.90;;;16.58;100.00;96741.16;5026168;28;20041;-39
2023/08/28 09:44:16;;;;;;;1.65;1.33;;;16.90;99.90;;;16.72;100.00;96731.31;5024257;28;20083;-42
2023/08/28 09:46:43;;;;;;;1.95;1.35;;;17.00;99.90;;;16.88;100.00;96721.28;5027558;28;20029;-40
2023/08/28 09:49:13;;;;;;;1.95;1.15;;;17.20;99.90;;;17.08;100.00;96713.63;5025322;28;20094;-40
2023/08/28 09:51:44;;;;;;;1.75;1.10;;;17.40;99.90;;;17.24;100.00;96708.03;5028152;28;20029;-39
2023/08/28 09:54:11;;;;;;;1.55;1.05;;;17.50;99.90;;;17.37;100.00;96695.47;5025612;28;20132;-39
2023/08/28 09:56:38;;;;;;;1.30;1.02;;;17.70;99.90;;;17.32;100.00;96682.50;5025427;28;20052;-39
2023/08/28 09:59:06;;;;;;;2.65;1.40;;;17.70;99.90;;;17.49;100.00;96701.69;5029328;28;20500;-40
2023/08/28 10:01:34;;;;;;;2.67;1.20;;;17.80;99.90;;;17.58;100.00;96700.16;5030196;28;20075;-42
2023/08/28 10:04:04;;;;;;;2.28;1.23;;;18.00;99.90;;;17.69;100.00;96697.50;5023953;28;20025;-39
2023/08/28 10:06:34;;;;;;;1.58;1.00;;;18.10;99.90;;;17.87;100.00;96697.94;5023318;28;20057;-39
2023/08/28 10:09:01;;;;;;;1.73;1.00;;;18.30;99.90;;;18.07;100.00;96694.56;5023707;28;20060;-39
2023/08/28 10:11:38;;;;;;;1.35;0.80;;;18.40;99.90;;;18.33;100.00;96694.31;5023339;28;20056;-40
2023/08/28 10:14:07;;;;;;;2.88;1.00;;;18.70;99.90;;;18.53;100.00;96684.72;5031305;28;20068;-41